Huvudsida
METAR-TAF:

METAR-TAF

Flygplatser :

Yasuj Airport

Yasuj, Iran

latitud: 30-41-49N, longitud: 051-33E, höjd: 1825 m

Aktuellt väderrapport

Denna rapport gjordes för 39 minuter sedan, klockan 08:00 UTC
Stilla vind
Temperatur 12°C
Fuktighet 38%
Tryck 1023 hPa
Sikt 10 km eller mer
Få moln på en höjd av 4000 ft
Spridda moln på en höjd av 8000 ft

METAR: OISY 220800Z 00000KT 9999 FEW040 SCT080 12/M02 Q1023

Tid: 12:09 (08:39 UTC)


TAF: saknas

Aktuella väderrapporter och prognoser från 4000 flygplatser (METAR- och TAF-rapporter).

De tillgängliga stationerna syns som gula och röda prickar på kartan.

För musen över prickarna för att se namnen på stationerna.

Klicka sedan för att få väderrapporter och prognoser.

För att ändra kartan: Klicka på de gröna knapparna med ett svart kors på för att zooma in; den gröna knappen med ett streck på för att zooma ut; eller på de gröna pilarna för angränsande kartor.


METAR-TAF: